This is the latest recevied weather packets stored in our database for station/object DH1FR-13. If no packets are shown the sender has not sent any weather packets the latest 10 day(s).
| Time | Temp. | Humidity | Pressure | Rain* | Wind** | Luminosity | Snow |
|---|---|---|---|---|---|---|---|
| 1777720801 | 25° C | 34% | 1023.2 hPa | 0 mm | 0 m/s | - | - |
| 1777720201 | 23.89° C | 38% | 1023.4 hPa | 0 mm | 0 m/s | - | - |
| 1777719601 | 24.44° C | 36% | 1023.4 hPa | 0 mm | 0 m/s | - | - |
| 1777719001 | 22.78° C | 37% | 1023.5 hPa | 0 mm | 0 m/s | - | - |
| 1777718401 | 23.33° C | 37% | 1023.7 hPa | 0 mm | 0 m/s | - | - |
| 1777717801 | 22.78° C | 37% | 1024 hPa | 0 mm | 0 m/s | - | - |
| 1777717201 | 22.78° C | 38% | 1023.8 hPa | 0 mm | 0 m/s | - | - |
| 1777716601 | 22.78° C | 38% | 1024.1 hPa | 0 mm | 0 m/s | - | - |
| 1777716000 | 22.78° C | 39% | 1024.3 hPa | 0 mm | 0 m/s | - | - |
| 1777715400 | 22.22° C | 39% | 1024.3 hPa | 0 mm | 0 m/s | - | - |
| 1777714801 | 22.22° C | 39% | 1024.3 hPa | 0 mm | 0 m/s | - | - |
| 1777714201 | 22.22° C | 41% | 1024.4 hPa | 0 mm | 0 m/s | - | - |
| 1777713601 | 22.22° C | 39% | 1024.5 hPa | 0 mm | 0 m/s | - | - |
| 1777713001 | 21.11° C | 38% | 1024.5 hPa | 0 mm | 0 m/s | - | - |
| 1777712401 | 21.67° C | 38% | 1024.7 hPa | 0 mm | 0 m/s | - | - |
| 1777711801 | 21.67° C | 40% | 1024.6 hPa | 0 mm | 0 m/s | - | - |
| 1777711201 | 21.67° C | 41% | 1024.7 hPa | 0 mm | 0 m/s | - | - |
| 1777710601 | 21.11° C | 42% | 1024.7 hPa | 0 mm | 0 m/s | - | - |
| 1777709401 | 19.44° C | 51% | 1025 hPa | 0 mm | 0 m/s | - | - |
| 1777708801 | 18.89° C | 51% | 1024.8 hPa | 0 mm | 0 m/s | - | - |
| 1777708201 | 18.33° C | 53% | 1025.1 hPa | 0 mm | 0 m/s | - | - |
| 1777707601 | 17.22° C | 55% | 1025.2 hPa | 0 mm | 0 m/s | - | - |
| 1777707001 | 16.67° C | 59% | 1025.3 hPa | 0 mm | 0 m/s | - | - |
| 1777706401 | 16.67° C | 58% | 1025.2 hPa | 0 mm | 0 m/s | - | - |
| 1777705801 | 15.56° C | 64% | 1025.2 hPa | 0 mm | 0 m/s | - | - |
* Rain latest hour (hover to see other rain measurements)
** Current wind speed in m/s (hover to see current wind gust speed)